Time;durP1;ratioP1;P1;durP2;ratioP2;P2;SDS_P1;SDS_P2;PMS_P1;PMS_P2;Temp;Humidity;BMP_temperature;BMP_pressure;BME280_temperature;BME280_humidity;BME280_pressure;Samples;Min_cycle;Max_cycle;Signal;HPM_P1;HPM_P2
2022/10/21 00:00:39;;;;;;;9.95;3.67;;;21.90;99.90;;;;;;5075952;28;20256;-95
2022/10/21 00:03:09;;;;;;;9.48;3.40;;;21.90;99.90;;;;;;5059189;28;20268;-95
2022/10/21 00:05:41;;;;;;;11.60;3.97;;;22.00;99.90;;;;;;5075357;28;20260;-95
2022/10/21 00:08:14;;;;;;;7.97;3.30;;;22.10;99.90;;;;;;5057392;28;20753;-95
2022/10/21 00:10:48;;;;;;;12.77;3.72;;;22.20;99.90;;;;;;5077216;28;20202;-96
2022/10/21 00:13:20;;;;;;;8.95;3.15;;;22.30;99.90;;;;;;5076356;28;21756;-96
2022/10/21 00:16:02;;;;;;;11.68;3.65;;;22.40;99.90;;;;;;5056803;28;20230;-96
2022/10/21 00:18:35;;;;;;;12.18;3.60;;;22.40;99.90;;;;;;5076954;28;20199;-96
2022/10/21 00:21:10;;;;;;;8.55;3.40;;;22.40;99.90;;;;;;5079070;28;20306;-96
2022/10/21 00:23:47;;;;;;;10.43;3.17;;;22.40;99.90;;;;;;5078359;28;20203;-96
2022/10/21 00:26:19;;;;;;;10.60;3.83;;;22.50;99.90;;;;;;5078462;28;21428;-95
2022/10/21 00:28:52;;;;;;;10.20;3.42;;;22.50;99.90;;;;;;5077874;28;20217;-96
2022/10/21 00:31:23;;;;;;;12.90;3.53;;;22.60;99.90;;;;;;5059308;28;20200;-96
2022/10/21 00:33:56;;;;;;;11.35;3.28;;;22.70;99.90;;;;;;5084897;28;20203;-95
2022/10/21 00:36:30;;;;;;;9.45;3.25;;;22.80;99.90;;;;;;5082204;28;20250;-96
2022/10/21 00:39:09;;;;;;;9.23;3.30;;;22.90;99.90;;;;;;5078209;28;20208;-96
2022/10/21 00:41:42;;;;;;;13.27;3.65;;;23.00;99.90;;;;;;5085435;28;20231;-95
2022/10/21 00:44:17;;;;;;;8.10;3.20;;;23.00;99.90;;;;;;5086507;28;20306;-96
2022/10/21 00:46:53;;;;;;;9.80;3.85;;;23.10;99.90;;;;;;5075739;28;20666;-95
2022/10/21 00:49:35;;;;;;;9.60;3.15;;;23.00;99.90;;;;;;5079087;28;20203;-96
2022/10/21 00:52:12;;;;;;;11.30;3.45;;;22.90;99.90;;;;;;5076180;28;21798;-95
2022/10/21 00:54:47;;;;;;;9.98;3.25;;;22.90;99.90;;;;;;5076115;28;20218;-95
2022/10/21 00:57:22;;;;;;;10.75;3.22;;;22.80;99.90;;;;;;5076824;28;20203;-95
2022/10/21 00:59:56;;;;;;;9.00;3.38;;;22.80;99.90;;;;;;5080449;28;20210;-95
2022/10/21 01:02:28;;;;;;;7.07;3.53;;;22.80;99.90;;;;;;5101709;28;20219;-96
2022/10/21 01:05:04;;;;;;;11.93;4.43;;;22.80;99.90;;;;;;5077307;28;20222;-95
2022/10/21 01:07:37;;;;;;;10.65;3.80;;;22.80;99.90;;;;;;5093191;28;20199;-96
2022/10/21 01:10:14;;;;;;;7.88;3.40;;;22.80;99.90;;;;;;5082924;28;20574;-95
2022/10/21 01:12:59;;;;;;;9.70;3.72;;;22.80;99.90;;;;;;5075562;28;20195;-96
2022/10/21 01:15:38;;;;;;;10.93;3.70;;;22.80;99.90;;;;;;5076706;28;20748;-96
2022/10/21 01:18:18;;;;;;;10.30;3.35;;;22.80;99.90;;;;;;5076226;28;20195;-95
2022/10/21 01:21:22;;;;;;;12.10;4.03;;;22.80;99.90;;;;;;5076463;28;20287;-96
2022/10/21 01:24:24;;;;;;;12.18;3.25;;;22.80;99.90;;;;;;5086912;28;20713;-95
2022/10/21 01:27:33;;;;;;;10.85;3.38;;;22.80;99.90;;;;;;5093275;28;20292;-96
2022/10/21 01:30:42;;;;;;;11.63;3.58;;;22.80;99.90;;;;;;5100770;28;20202;-96
2022/10/21 01:33:30;;;;;;;10.57;3.50;;;22.90;99.90;;;;;;5101310;28;20545;-95
2022/10/21 01:36:12;;;;;;;8.70;3.35;;;23.10;99.90;;;;;;5094925;28;20226;-94
2022/10/21 01:38:51;;;;;;;9.27;3.20;;;23.10;99.90;;;;;;5091531;28;20222;-96
2022/10/21 01:41:31;;;;;;;8.80;3.13;;;23.20;99.90;;;;;;5108942;28;20242;-96
2022/10/21 01:44:10;;;;;;;9.23;3.10;;;23.20;99.90;;;;;;5048919;28;20938;-90
2022/10/21 01:46:49;;;;;;;11.23;3.28;;;23.30;99.90;;;;;;5073332;28;20271;-91
2022/10/21 01:49:26;;;;;;;10.18;3.58;;;23.30;99.90;;;;;;5071448;28;20884;-92
2022/10/21 01:52:00;;;;;;;7.63;2.78;;;23.40;99.90;;;;;;5079673;28;20211;-92
2022/10/21 01:54:34;;;;;;;12.85;3.35;;;23.40;99.90;;;;;;5087630;28;20202;-90
2022/10/21 01:57:11;;;;;;;15.05;3.83;;;23.50;99.90;;;;;;5100086;28;20273;-93
2022/10/21 01:59:47;;;;;;;8.35;3.00;;;23.60;99.90;;;;;;5091907;28;20199;-93
2022/10/21 02:02:23;;;;;;;14.05;3.47;;;23.60;99.90;;;;;;5085401;28;20224;-95
2022/10/21 02:04:56;;;;;;;9.93;3.13;;;23.80;99.90;;;;;;5105951;28;20231;-93
2022/10/21 02:07:29;;;;;;;10.50;3.15;;;23.80;99.90;;;;;;5105209;28;20199;-93
2022/10/21 02:10:01;;;;;;;10.88;3.33;;;23.90;99.90;;;;;;5092637;28;20199;-92
2022/10/21 02:12:34;;;;;;;7.20;2.72;;;24.00;99.90;;;;;;5090679;28;20207;-93
2022/10/21 02:15:12;;;;;;;10.63;3.20;;;24.10;99.90;;;;;;5094446;28;20187;-94
2022/10/21 02:17:52;;;;;;;9.30;3.00;;;24.20;99.90;;;;;;5092768;28;20201;-92
2022/10/21 02:20:25;;;;;;;8.48;2.72;;;24.20;99.90;;;;;;5091797;28;20285;-92
2022/10/21 02:22:58;;;;;;;11.57;3.05;;;24.30;99.90;;;;;;5085473;28;20203;-92
2022/10/21 02:25:34;;;;;;;9.73;2.80;;;24.30;99.90;;;;;;5080033;28;20261;-93
2022/10/21 02:28:06;;;;;;;8.82;2.70;;;24.10;99.90;;;;;;5083690;28;20196;-95
2022/10/21 02:30:47;;;;;;;10.70;2.92;;;24.10;99.90;;;;;;5092116;28;20207;-93
2022/10/21 02:33:26;;;;;;;12.65;3.10;;;24.20;99.90;;;;;;5088900;28;20540;-93
2022/10/21 02:36:06;;;;;;;12.82;3.47;;;24.30;99.90;;;;;;5096171;28;20244;-92
2022/10/21 02:38:43;;;;;;;12.95;3.20;;;24.50;99.90;;;;;;5088665;28;20195;-93
2022/10/21 02:41:16;;;;;;;12.77;3.08;;;24.60;99.90;;;;;;5095914;28;20232;-93
2022/10/21 02:43:52;;;;;;;9.40;2.70;;;24.60;99.90;;;;;;5074594;28;20195;-92
2022/10/21 02:46:25;;;;;;;11.32;3.33;;;24.50;99.90;;;;;;5061170;28;20195;-92
2022/10/21 02:51:44;;;;;;;10.48;2.75;;;24.40;99.90;;;;;;5093805;28;20239;-92
2022/10/21 02:54:15;;;;;;;13.55;2.78;;;24.30;99.90;;;;;;5084960;28;20202;-94
2022/10/21 02:56:45;;;;;;;10.75;2.63;;;24.10;99.90;;;;;;5086700;28;20217;-92
2022/10/21 02:59:18;;;;;;;9.23;2.67;;;24.00;99.90;;;;;;5075493;28;20206;-92
2022/10/21 03:01:50;;;;;;;9.57;2.47;;;23.80;99.90;;;;;;5083788;28;20215;-92
2022/10/21 03:04:25;;;;;;;10.77;2.63;;;23.70;99.90;;;;;;5095964;28;20200;-93
2022/10/21 03:06:56;;;;;;;11.32;3.00;;;23.60;99.90;;;;;;5105943;28;20208;-92
2022/10/21 03:09:28;;;;;;;9.27;2.80;;;23.40;99.90;;;;;;5116190;28;20183;-88
2022/10/21 03:11:59;;;;;;;10.80;2.63;;;23.40;99.90;;;;;;5109165;28;20203;-92
2022/10/21 03:14:32;;;;;;;6.55;2.20;;;23.40;99.90;;;;;;5098873;28;20203;-93
2022/10/21 03:17:05;;;;;;;8.40;2.30;;;23.30;99.90;;;;;;5098308;28;20291;-91
2022/10/21 03:19:40;;;;;;;9.63;2.40;;;23.40;99.90;;;;;;5098635;28;20287;-91
2022/10/21 03:22:11;;;;;;;6.35;1.90;;;23.20;99.90;;;;;;5088977;28;20196;-94
2022/10/21 03:24:43;;;;;;;7.82;2.40;;;23.20;99.90;;;;;;5058577;28;20199;-93
2022/10/21 03:27:15;;;;;;;8.27;2.20;;;23.30;99.90;;;;;;5102417;28;20251;-93
2022/10/21 03:29:46;;;;;;;9.48;2.00;;;23.20;99.90;;;;;;5096326;28;20204;-93
2022/10/21 03:32:19;;;;;;;6.97;1.90;;;23.20;99.90;;;;;;5090675;28;20199;-93
2022/10/21 03:34:51;;;;;;;8.32;1.70;;;23.20;99.90;;;;;;5097352;28;20282;-94
2022/10/21 03:37:22;;;;;;;7.63;1.73;;;23.20;99.90;;;;;;5084263;28;20223;-94
2022/10/21 03:39:55;;;;;;;5.18;1.60;;;23.30;99.90;;;;;;5060241;28;20202;-89
2022/10/21 03:45:39;;;;;;;3.85;1.20;;;23.60;99.90;;;;;;5094153;28;20195;-96
2022/10/21 03:48:12;;;;;;;6.57;1.60;;;23.90;99.90;;;;;;5103050;28;20227;-96
2022/10/21 03:50:54;;;;;;;4.28;1.48;;;24.00;99.90;;;;;;5099811;28;20654;-95
2022/10/21 03:53:27;;;;;;;3.47;0.93;;;24.00;99.90;;;;;;5088327;28;20267;-95
2022/10/21 03:55:58;;;;;;;3.95;1.10;;;24.00;99.90;;;;;;5087701;28;20232;-96
2022/10/21 03:58:34;;;;;;;4.20;1.23;;;24.10;99.90;;;;;;5109111;28;20256;-96
2022/10/21 04:01:06;;;;;;;5.63;0.90;;;24.00;99.90;;;;;;5098942;28;20192;-94
2022/10/21 04:03:38;;;;;;;4.32;1.10;;;24.10;99.90;;;;;;5082035;28;20204;-95
2022/10/21 04:06:11;;;;;;;6.00;1.20;;;24.10;99.90;;;;;;5097309;28;20287;-94
2022/10/21 04:08:42;;;;;;;4.28;1.15;;;24.00;99.90;;;;;;5079683;28;20309;-92
2022/10/21 04:11:14;;;;;;;3.80;1.10;;;24.00;99.90;;;;;;5074146;28;20192;-94
2022/10/21 04:13:46;;;;;;;5.30;1.50;;;23.90;99.90;;;;;;5105091;28;20244;-91
2022/10/21 04:16:21;;;;;;;7.05;1.58;;;23.90;99.90;;;;;;5097990;28;20219;-93
2022/10/21 04:18:53;;;;;;;7.13;1.52;;;23.90;99.90;;;;;;5098616;28;20230;-93
2022/10/21 04:21:29;;;;;;;6.53;1.60;;;24.00;99.90;;;;;;5094360;28;20263;-94
2022/10/21 04:24:02;;;;;;;7.97;1.77;;;24.10;99.90;;;;;;5076707;28;20195;-93
2022/10/21 04:26:36;;;;;;;10.25;1.90;;;24.30;99.90;;;;;;5094072;28;20617;-92
2022/10/21 04:29:09;;;;;;;6.45;1.58;;;24.60;99.90;;;;;;5095622;28;20191;-93
2022/10/21 04:31:40;;;;;;;6.20;1.75;;;24.60;99.90;;;;;;5094213;28;20203;-93
2022/10/21 04:34:12;;;;;;;5.20;1.45;;;24.90;99.90;;;;;;5105867;28;20597;-95
2022/10/21 04:36:48;;;;;;;9.48;2.13;;;25.20;99.90;;;;;;5097800;28;20229;-96
2022/10/21 04:39:21;;;;;;;9.73;1.85;;;25.60;99.90;;;;;;5079949;28;20195;-94
2022/10/21 04:41:54;;;;;;;7.18;1.83;;;26.00;99.90;;;;;;5095795;28;20360;-96
2022/10/21 04:44:27;;;;;;;9.00;2.17;;;26.20;99.90;;;;;;5103930;28;20264;-95
2022/10/21 04:47:00;;;;;;;11.02;2.67;;;26.30;99.90;;;;;;5082032;28;20275;-96
2022/10/21 04:49:32;;;;;;;6.93;2.10;;;26.10;99.90;;;;;;5098390;28;20191;-95
2022/10/21 04:52:07;;;;;;;11.25;2.10;;;26.00;99.90;;;;;;5094638;28;20211;-93
2022/10/21 04:54:40;;;;;;;10.52;2.10;;;26.00;99.90;;;;;;5090616;28;20209;-96
2022/10/21 04:57:14;;;;;;;12.13;2.47;;;26.10;99.90;;;;;;5098092;28;20368;-95
2022/10/21 04:59:46;;;;;;;9.43;2.40;;;26.10;99.90;;;;;;5094540;28;20195;-94
2022/10/21 05:02:21;;;;;;;13.25;2.00;;;26.30;99.90;;;;;;5096657;28;20191;-93
2022/10/21 05:05:01;;;;;;;8.10;2.15;;;26.30;99.90;;;;;;5099232;28;20339;-96
2022/10/21 05:07:36;;;;;;;7.18;1.98;;;26.30;99.90;;;;;;5098116;28;20206;-95
2022/10/21 05:10:13;;;;;;;9.43;1.95;;;26.40;99.90;;;;;;5098659;28;20195;-96
2022/10/21 05:12:45;;;;;;;9.20;2.25;;;26.20;99.90;;;;;;5099876;28;20187;-95
2022/10/21 05:15:17;;;;;;;11.23;2.70;;;26.20;99.90;;;;;;5097082;28;20193;-94
2022/10/21 05:17:50;;;;;;;9.73;1.90;;;26.00;99.90;;;;;;5087663;28;20227;-93
2022/10/21 05:20:22;;;;;;;9.50;2.17;;;26.00;99.90;;;;;;5098534;28;20198;-94
2022/10/21 05:22:57;;;;;;;9.82;2.17;;;25.80;99.90;;;;;;5087087;28;20235;-93
2022/10/21 05:25:29;;;;;;;7.57;2.05;;;25.60;99.90;;;;;;5124459;28;20204;-95
2022/10/21 05:28:02;;;;;;;6.00;1.70;;;25.50;99.90;;;;;;5118807;28;20303;-95
2022/10/21 05:30:37;;;;;;;8.82;1.60;;;25.40;99.90;;;;;;5098469;28;20209;-96
2022/10/21 05:33:16;;;;;;;5.75;1.40;;;25.20;99.90;;;;;;5095063;28;20286;-96
2022/10/21 05:35:56;;;;;;;4.72;1.38;;;25.10;99.90;;;;;;5082743;28;20287;-93
2022/10/21 05:38:29;;;;;;;6.60;1.50;;;24.80;99.90;;;;;;5079308;28;20290;-90
2022/10/21 05:41:01;;;;;;;5.43;1.20;;;24.80;99.90;;;;;;5091659;28;20327;-94
2022/10/21 05:43:36;;;;;;;3.05;1.05;;;24.70;99.90;;;;;;5091463;28;20226;-95
2022/10/21 05:46:08;;;;;;;5.50;1.40;;;24.50;99.90;;;;;;5094217;28;20195;-94
2022/10/21 05:48:40;;;;;;;4.85;1.20;;;24.40;99.90;;;;;;5082342;28;20215;-94
2022/10/21 05:51:13;;;;;;;5.90;1.17;;;24.30;99.90;;;;;;5071874;28;20853;-90
2022/10/21 05:53:48;;;;;;;5.70;1.30;;;24.30;99.90;;;;;;5077844;28;20203;-94
2022/10/21 05:56:19;;;;;;;6.70;1.27;;;24.20;99.90;;;;;;5078411;28;20531;-93
2022/10/21 05:58:50;;;;;;;9.32;1.08;;;24.10;99.90;;;;;;5088878;28;20201;-90
2022/10/21 06:01:21;;;;;;;3.53;0.85;;;24.10;99.90;;;;;;5091634;28;20207;-91
2022/10/21 06:03:54;;;;;;;4.55;1.05;;;23.90;99.90;;;;;;5080349;28;20201;-90
2022/10/21 06:06:25;;;;;;;6.72;1.40;;;23.80;99.90;;;;;;5105662;28;20214;-93
2022/10/21 06:09:00;;;;;;;4.95;1.23;;;23.80;99.90;;;;;;5104707;28;20210;-90
2022/10/21 06:11:33;;;;;;;5.40;1.30;;;23.70;99.90;;;;;;5084855;28;20699;-96
2022/10/21 06:14:06;;;;;;;5.15;1.35;;;23.60;99.90;;;;;;5084253;28;20615;-96
2022/10/21 06:16:38;;;;;;;5.78;1.30;;;23.60;99.90;;;;;;5105890;28;20227;-91
2022/10/21 06:19:10;;;;;;;4.68;1.25;;;23.50;99.90;;;;;;5110497;28;20195;-91
2022/10/21 06:21:42;;;;;;;4.75;1.00;;;23.50;99.90;;;;;;5114926;28;20214;-94
2022/10/21 06:24:24;;;;;;;5.03;0.98;;;23.40;99.90;;;;;;5101288;28;20290;-94
2022/10/21 06:26:57;;;;;;;3.67;0.95;;;23.40;99.90;;;;;;5081981;28;20214;-93
2022/10/21 06:29:29;;;;;;;6.15;1.10;;;23.40;99.90;;;;;;5098026;28;20252;-92
2022/10/21 06:32:02;;;;;;;3.20;0.80;;;23.40;99.90;;;;;;5076552;28;20680;-95
2022/10/21 06:34:34;;;;;;;3.10;0.90;;;23.30;99.90;;;;;;5098457;28;20201;-95
2022/10/21 06:37:06;;;;;;;2.20;0.50;;;23.30;99.90;;;;;;5100975;28;20271;-95
2022/10/21 06:39:40;;;;;;;4.70;1.00;;;23.30;99.90;;;;;;5094016;28;20286;-91
2022/10/21 06:42:11;;;;;;;3.90;0.93;;;23.20;99.90;;;;;;5049347;28;20881;-90
2022/10/21 06:44:43;;;;;;;4.35;1.00;;;23.30;99.90;;;;;;5037563;28;20220;-90
2022/10/21 06:47:14;;;;;;;4.55;1.20;;;23.20;99.90;;;;;;5039369;28;20632;-92
2022/10/21 06:49:45;;;;;;;7.40;1.45;;;23.10;99.90;;;;;;5039642;28;20224;-91
2022/10/21 06:52:17;;;;;;;5.75;1.23;;;23.00;99.90;;;;;;5077361;28;20203;-92
2022/10/21 06:54:52;;;;;;;5.45;1.35;;;22.90;99.90;;;;;;5076931;28;20203;-90
2022/10/21 06:57:26;;;;;;;6.88;1.42;;;22.90;99.90;;;;;;5067941;28;20683;-92
2022/10/21 07:00:00;;;;;;;8.50;1.70;;;22.80;99.90;;;;;;5060745;28;20200;-95
2022/10/21 07:02:32;;;;;;;5.57;1.63;;;22.70;99.90;;;;;;5054735;28;20219;-95
2022/10/21 07:05:04;;;;;;;7.40;1.52;;;22.80;99.90;;;;;;5049509;28;20348;-95
2022/10/21 07:07:35;;;;;;;6.10;1.50;;;22.70;99.90;;;;;;5069648;28;20203;-92
2022/10/21 07:10:10;;;;;;;5.90;1.65;;;22.60;99.90;;;;;;5055816;28;20208;-94
2022/10/21 07:12:43;;;;;;;10.52;2.20;;;22.60;99.90;;;;;;5062739;28;20201;-90
2022/10/21 07:15:14;;;;;;;8.05;2.00;;;22.60;99.90;;;;;;5059194;28;20682;-92
2022/10/21 07:17:46;;;;;;;8.98;2.15;;;22.60;99.90;;;;;;5069371;28;20256;-93
2022/10/21 07:20:17;;;;;;;7.68;2.05;;;22.50;99.90;;;;;;5060209;28;20272;-92
2022/10/21 07:22:51;;;;;;;8.57;1.98;;;22.40;99.90;;;;;;5045769;28;20225;-91
2022/10/21 07:25:26;;;;;;;8.52;1.95;;;22.40;99.90;;;;;;5061275;28;20220;-93
2022/10/21 07:27:58;;;;;;;12.07;2.97;;;22.30;99.90;;;;;;5064687;28;20201;-94
2022/10/21 07:30:31;;;;;;;12.35;2.60;;;22.30;99.90;;;;;;5056471;28;20211;-92
2022/10/21 07:33:05;;;;;;;11.27;2.75;;;22.30;99.90;;;;;;5064593;28;20228;-92
2022/10/21 07:35:40;;;;;;;12.75;3.03;;;22.30;99.90;;;;;;5028775;28;20204;-90
2022/10/21 07:38:13;;;;;;;11.40;3.22;;;22.30;99.90;;;;;;5036108;28;20248;-95
2022/10/21 07:40:50;;;;;;;11.57;2.50;;;22.30;99.90;;;;;;5069435;28;20735;-94
2022/10/21 07:43:21;;;;;;;10.75;2.58;;;22.30;99.90;;;;;;5077946;28;20218;-96
2022/10/21 07:45:52;;;;;;;15.00;2.90;;;22.20;99.90;;;;;;5057830;28;20192;-94
2022/10/21 07:48:24;;;;;;;11.32;2.70;;;22.20;99.90;;;;;;5076191;28;20204;-92
2022/10/21 07:50:58;;;;;;;14.10;2.67;;;22.10;99.90;;;;;;5065347;28;20223;-93
2022/10/21 07:53:30;;;;;;;12.48;2.67;;;22.00;99.90;;;;;;5052399;28;21431;-91
2022/10/21 07:56:15;;;;;;;13.80;2.50;;;22.00;99.90;;;;;;5070399;28;20659;-91
2022/10/21 07:58:54;;;;;;;9.73;2.33;;;22.00;99.90;;;;;;5052242;28;20228;-93
2022/10/21 08:01:30;;;;;;;14.30;2.42;;;22.00;99.90;;;;;;5049396;28;20212;-92
2022/10/21 08:04:02;;;;;;;11.77;2.88;;;21.90;99.90;;;;;;5048847;28;20214;-89
2022/10/21 08:06:33;;;;;;;9.82;1.98;;;21.80;99.90;;;;;;5052849;28;20936;-92
2022/10/21 08:09:07;;;;;;;12.15;2.67;;;21.80;99.90;;;;;;5051420;28;20196;-91
2022/10/21 08:11:40;;;;;;;11.93;2.65;;;21.80;99.90;;;;;;5082426;28;20655;-91
2022/10/21 08:14:12;;;;;;;9.88;2.40;;;21.80;99.90;;;;;;5070366;28;20668;-91
2022/10/21 08:16:44;;;;;;;9.20;2.08;;;21.80;99.90;;;;;;5073038;28;20219;-91
2022/10/21 08:19:20;;;;;;;10.05;2.33;;;21.70;99.90;;;;;;5074272;28;20414;-93
2022/10/21 08:21:53;;;;;;;14.43;2.72;;;21.70;99.90;;;;;;5074151;28;20210;-92
2022/10/21 08:24:25;;;;;;;8.75;2.20;;;21.70;99.90;;;;;;5073906;28;20227;-90
2022/10/21 08:27:01;;;;;;;11.05;2.05;;;21.70;99.90;;;;;;5075044;28;20196;-94
2022/10/21 08:29:33;;;;;;;11.38;2.55;;;21.60;99.90;;;;;;5086482;28;20215;-92
2022/10/21 08:34:49;;;;;;;13.07;2.17;;;21.50;99.90;;;;;;5075873;28;20224;-95
2022/10/21 08:37:21;;;;;;;10.07;2.08;;;21.50;99.90;;;;;;5080954;28;20227;-92
2022/10/21 08:39:53;;;;;;;9.45;2.00;;;21.40;99.90;;;;;;5085631;28;20240;-93
2022/10/21 08:42:32;;;;;;;10.43;2.15;;;21.50;99.90;;;;;;5076367;28;20244;-95
2022/10/21 08:45:08;;;;;;;10.13;2.05;;;21.40;99.90;;;;;;5093011;28;20687;-94
2022/10/21 08:47:44;;;;;;;7.15;1.90;;;21.40;99.90;;;;;;5086112;28;20215;-94
2022/10/21 08:50:20;;;;;;;9.95;1.90;;;21.40;99.90;;;;;;5075412;28;20562;-93
2022/10/21 08:52:54;;;;;;;7.25;1.85;;;21.30;99.90;;;;;;5093358;28;20191;-93
2022/10/21 08:55:31;;;;;;;8.90;1.83;;;21.40;99.90;;;;;;5092598;28;20207;-94
2022/10/21 08:58:07;;;;;;;10.63;2.50;;;21.30;99.90;;;;;;5092792;28;20214;-95
2022/10/21 09:00:43;;;;;;;9.63;1.90;;;21.30;99.90;;;;;;5093780;28;20195;-94
2022/10/21 09:03:27;;;;;;;10.07;2.08;;;21.30;99.90;;;;;;5081123;28;20205;-95
2022/10/21 09:06:21;;;;;;;9.15;2.05;;;21.20;99.90;;;;;;5104173;28;20278;-95
2022/10/21 09:09:12;;;;;;;9.75;2.08;;;21.10;99.90;;;;;;5086796;28;20199;-94
2022/10/21 09:11:58;;;;;;;11.15;1.70;;;21.20;99.90;;;;;;5082995;28;20196;-93
2022/10/21 09:15:00;;;;;;;12.65;2.20;;;21.10;99.90;;;;;;5084509;28;20234;-92
2022/10/21 09:17:55;;;;;;;6.10;1.58;;;21.20;99.90;;;;;;5076029;28;20227;-92
2022/10/21 09:20:44;;;;;;;9.10;1.80;;;21.10;99.90;;;;;;5064702;28;20204;-92
2022/10/21 09:23:44;;;;;;;11.52;2.05;;;21.10;99.90;;;;;;5079546;28;20288;-93
2022/10/21 09:26:36;;;;;;;9.15;1.90;;;21.10;99.90;;;;;;5059092;28;20224;-95
2022/10/21 09:29:37;;;;;;;6.72;1.50;;;21.10;99.90;;;;;;5073948;28;20211;-95
2022/10/21 09:32:24;;;;;;;8.15;1.67;;;21.10;99.90;;;;;;5094864;28;20187;-93
2022/10/21 09:35:02;;;;;;;7.15;1.52;;;21.10;99.90;;;;;;5074143;28;20207;-94
2022/10/21 09:37:40;;;;;;;6.55;1.65;;;21.10;99.90;;;;;;5074700;28;20219;-96
2022/10/21 09:40:19;;;;;;;8.40;1.80;;;21.20;99.90;;;;;;5094860;28;20241;-94
2022/10/21 09:42:54;;;;;;;4.10;1.30;;;21.20;99.90;;;;;;5091118;28;20226;-92
2022/10/21 09:45:35;;;;;;;6.28;1.52;;;21.20;99.90;;;;;;5091674;28;20282;-95
2022/10/21 09:48:20;;;;;;;5.38;1.50;;;21.20;99.90;;;;;;5092616;28;20207;-95
2022/10/21 09:50:54;;;;;;;10.38;1.67;;;21.20;99.90;;;;;;5087145;28;20199;-95
2022/10/21 09:53:29;;;;;;;6.93;1.35;;;21.20;99.90;;;;;;5099455;28;20566;-93
2022/10/21 09:56:05;;;;;;;6.70;1.63;;;21.20;99.90;;;;;;5116025;28;20192;-94
2022/10/21 09:58:51;;;;;;;7.65;1.67;;;21.20;99.90;;;;;;5116821;28;20321;-93
2022/10/21 10:01:26;;;;;;;6.13;1.40;;;21.20;99.90;;;;;;5099250;28;20221;-93
2022/10/21 10:04:01;;;;;;;8.82;1.95;;;21.20;99.90;;;;;;5103111;28;20202;-92
2022/10/21 10:06:38;;;;;;;8.88;1.92;;;21.20;99.90;;;;;;5093107;28;20563;-93
2022/10/21 10:09:31;;;;;;;7.45;1.40;;;21.20;99.90;;;;;;5102684;28;20197;-94
2022/10/21 10:12:07;;;;;;;8.95;1.80;;;21.10;99.90;;;;;;5066377;28;20200;-93
2022/10/21 10:14:47;;;;;;;8.25;1.83;;;21.10;99.90;;;;;;5076855;28;20202;-94
2022/10/21 10:17:38;;;;;;;8.05;1.77;;;21.10;99.90;;;;;;5079427;28;20631;-93
2022/10/21 10:20:28;;;;;;;6.72;1.67;;;21.10;99.90;;;;;;5072454;28;20196;-95
2022/10/21 10:23:21;;;;;;;8.77;2.03;;;21.10;99.90;;;;;;5086387;28;20284;-93
2022/10/21 10:25:55;;;;;;;6.88;1.55;;;21.10;99.90;;;;;;5076991;28;20222;-94
2022/10/21 10:28:28;;;;;;;8.38;2.20;;;21.10;99.90;;;;;;5059659;28;20203;-93
2022/10/21 10:31:01;;;;;;;10.30;2.28;;;21.10;99.90;;;;;;5092587;28;20226;-91
2022/10/21 10:33:37;;;;;;;9.68;2.35;;;21.10;99.90;;;;;;5079583;28;20447;-93
2022/10/21 10:36:33;;;;;;;12.77;2.53;;;21.10;99.90;;;;;;5103077;28;20226;-92
2022/10/21 10:39:07;;;;;;;13.80;2.70;;;21.10;99.90;;;;;;5097152;28;20219;-94
2022/10/21 10:41:45;;;;;;;14.88;2.55;;;21.00;99.90;;;;;;5096294;28;20262;-93
2022/10/21 10:44:28;;;;;;;13.07;2.75;;;21.00;99.90;;;;;;5070122;28;20195;-91
2022/10/21 10:47:01;;;;;;;19.02;2.80;;;21.00;99.90;;;;;;5108624;28;20199;-94
2022/10/21 10:49:42;;;;;;;15.98;3.10;;;20.90;99.90;;;;;;5101153;28;20213;-94
2022/10/21 10:52:27;;;;;;;17.90;3.65;;;20.90;99.90;;;;;;5106695;28;20198;-96
2022/10/21 10:55:18;;;;;;;16.80;3.00;;;20.90;99.90;;;;;;5082991;28;20191;-94
2022/10/21 10:57:59;;;;;;;18.58;3.63;;;20.80;99.90;;;;;;5090714;28;20257;-92
2022/10/21 11:00:35;;;;;;;18.90;3.50;;;20.80;99.90;;;;;;5066886;28;20195;-93
2022/10/21 11:03:12;;;;;;;16.67;3.35;;;20.80;99.90;;;;;;5109020;28;20203;-93
2022/10/21 11:05:48;;;;;;;19.23;3.75;;;20.90;99.90;;;;;;5101863;28;20227;-93
2022/10/21 11:08:34;;;;;;;17.35;3.75;;;20.90;99.90;;;;;;5096315;28;20213;-93
2022/10/21 11:11:11;;;;;;;22.92;4.07;;;20.90;99.90;;;;;;5098313;28;20195;-92
2022/10/21 11:13:44;;;;;;;18.70;3.63;;;20.90;99.90;;;;;;5060670;28;20196;-90
2022/10/21 11:16:46;;;;;;;20.05;3.42;;;20.90;99.90;;;;;;5070021;28;20278;-92
2022/10/21 11:19:24;;;;;;;18.20;3.85;;;20.90;99.90;;;;;;5111123;28;20225;-94
2022/10/21 11:22:04;;;;;;;19.60;4.03;;;20.90;99.90;;;;;;5120438;28;20229;-92
2022/10/21 11:25:04;;;;;;;16.88;3.60;;;20.90;99.90;;;;;;5118065;28;20198;-93
2022/10/21 11:27:55;;;;;;;21.10;3.58;;;20.90;99.90;;;;;;5117202;28;20190;-93
2022/10/21 11:30:30;;;;;;;16.80;3.40;;;20.90;99.90;;;;;;5124177;28;20270;-93
2022/10/21 11:33:23;;;;;;;12.57;3.38;;;20.90;99.90;;;;;;5129639;28;20232;-94
2022/10/21 11:36:04;;;;;;;20.23;3.70;;;20.90;99.90;;;;;;5087249;28;20200;-93
2022/10/21 11:38:59;;;;;;;14.75;3.38;;;20.90;99.90;;;;;;5098981;28;20564;-94
2022/10/21 11:41:42;;;;;;;16.10;3.42;;;20.90;99.90;;;;;;5101063;28;20234;-92
2022/10/21 11:44:23;;;;;;;14.80;3.15;;;20.90;99.90;;;;;;5099098;28;20245;-94
2022/10/21 11:47:07;;;;;;;13.43;3.22;;;21.00;99.90;;;;;;5096317;28;20187;-96
2022/10/21 11:49:53;;;;;;;17.50;3.30;;;20.90;99.90;;;;;;5079009;28;20199;-94
2022/10/21 11:52:36;;;;;;;14.85;3.22;;;21.00;99.90;;;;;;5098652;28;20175;-92
2022/10/21 11:55:33;;;;;;;16.98;3.60;;;20.90;99.90;;;;;;5095771;28;20569;-91
2022/10/21 11:58:33;;;;;;;15.25;3.35;;;20.90;99.90;;;;;;5095549;28;20226;-91
2022/10/21 12:01:22;;;;;;;16.25;3.20;;;20.90;99.90;;;;;;5098356;28;20282;-91
2022/10/21 12:04:26;;;;;;;12.07;3.30;;;20.90;99.90;;;;;;5099611;28;20194;-91
2022/10/21 12:07:09;;;;;;;12.90;3.17;;;20.90;99.90;;;;;;5088636;28;20251;-91
2022/10/21 12:09:52;;;;;;;14.52;3.08;;;20.90;99.90;;;;;;5084048;28;20207;-91
2022/10/21 12:12:41;;;;;;;12.75;2.80;;;20.90;99.90;;;;;;5094951;28;20230;-91
2022/10/21 12:18:24;;;;;;;12.45;3.25;;;20.90;99.90;;;;;;5103063;28;20203;-92
2022/10/21 12:21:08;;;;;;;11.13;2.83;;;20.80;99.90;;;;;;5109036;28;20206;-94
2022/10/21 12:26:40;;;;;;;10.27;2.50;;;20.80;99.90;;;;;;5023772;28;20218;-93
2022/10/21 12:29:19;;;;;;;10.40;2.40;;;20.70;99.90;;;;;;5090338;28;20205;-93
2022/10/21 12:31:57;;;;;;;12.18;2.83;;;20.80;99.90;;;;;;5117144;28;20190;-93
2022/10/21 12:34:33;;;;;;;12.30;3.25;;;20.80;99.90;;;;;;5116508;28;20199;-94
2022/10/21 12:37:05;;;;;;;15.18;3.53;;;20.80;99.90;;;;;;5105748;28;20198;-92
2022/10/21 12:39:53;;;;;;;11.07;3.05;;;20.80;99.90;;;;;;5093782;28;20223;-94
2022/10/21 12:42:31;;;;;;;12.63;2.75;;;20.80;99.90;;;;;;5074101;28;20224;-93
2022/10/21 12:45:03;;;;;;;12.10;2.88;;;20.80;99.90;;;;;;5060380;28;20857;-92
2022/10/21 12:47:37;;;;;;;12.50;2.78;;;20.80;99.90;;;;;;5096237;28;20255;-94
2022/10/21 12:50:28;;;;;;;13.55;3.33;;;20.80;99.90;;;;;;5110471;28;20196;-94
2022/10/21 12:53:27;;;;;;;16.65;3.33;;;20.80;99.90;;;;;;5089575;28;20719;-95
2022/10/21 12:56:01;;;;;;;12.73;3.10;;;20.80;99.90;;;;;;5097241;28;20198;-95
2022/10/21 12:59:05;;;;;;;14.05;3.08;;;20.80;99.90;;;;;;5067301;28;20214;-95
2022/10/21 13:01:47;;;;;;;14.48;2.95;;;20.70;99.90;;;;;;5090571;28;20203;-91
2022/10/21 13:04:51;;;;;;;19.30;3.50;;;20.80;99.90;;;;;;5074355;28;20259;-91
2022/10/21 13:08:16;;;;;;;14.13;3.03;;;20.70;99.90;;;;;;5089860;28;20701;-90
2022/10/21 13:11:15;;;;;;;14.50;3.20;;;20.70;99.90;;;;;;5103405;28;20192;-92
2022/10/21 13:13:48;;;;;;;13.98;3.00;;;20.60;99.90;;;;;;5105951;28;20263;-90
2022/10/21 13:16:38;;;;;;;12.10;2.67;;;20.60;99.90;;;;;;5097332;28;20200;-91
2022/10/21 13:19:37;;;;;;;10.10;2.92;;;20.60;99.90;;;;;;5069284;28;20310;-93
2022/10/21 13:22:17;;;;;;;12.32;2.95;;;20.60;99.90;;;;;;5091247;28;20202;-92
2022/10/21 13:24:53;;;;;;;13.27;3.10;;;20.50;99.90;;;;;;5087363;28;20199;-94
2022/10/21 13:27:31;;;;;;;16.35;3.55;;;20.50;99.90;;;;;;5087911;28;20199;-93
2022/10/21 13:30:03;;;;;;;14.07;3.60;;;20.50;99.90;;;;;;5091350;28;20252;-93
2022/10/21 13:32:36;;;;;;;21.63;3.40;;;20.50;99.90;;;;;;5108420;28;20252;-91
2022/10/21 13:35:28;;;;;;;19.55;3.83;;;20.50;99.90;;;;;;5092436;28;20316;-91
2022/10/21 13:38:03;;;;;;;13.15;3.17;;;20.50;99.90;;;;;;5073800;28;20206;-92
2022/10/21 13:40:56;;;;;;;17.70;3.22;;;20.50;99.90;;;;;;5087638;28;20262;-91
2022/10/21 13:43:32;;;;;;;14.88;3.40;;;20.50;99.90;;;;;;5092810;28;20235;-90
2022/10/21 13:46:10;;;;;;;12.77;3.17;;;20.40;99.90;;;;;;5069976;28;20642;-91
2022/10/21 13:48:46;;;;;;;14.65;3.15;;;20.50;99.90;;;;;;5067858;28;20206;-90
2022/10/21 13:51:22;;;;;;;16.58;3.22;;;20.40;99.90;;;;;;5092716;28;20293;-91